createdAt,value
2023-04-11T00:02:04.851Z,87.04
2023-04-11T00:04:34.707Z,87.03
2023-04-11T00:07:02.218Z,87.50
2023-04-11T00:09:29.731Z,86.37
2023-04-11T00:11:57.479Z,87.11
2023-04-11T00:14:25.262Z,87.29
2023-04-11T00:16:53.944Z,86.81
2023-04-11T00:19:25.604Z,86.58
2023-04-11T00:21:57.594Z,87.20
2023-04-11T00:24:26.192Z,87.00
2023-04-11T00:26:54.270Z,87.13
2023-04-11T00:29:23.806Z,86.72
2023-04-11T00:31:52.898Z,87.28
2023-04-11T00:34:20.694Z,88.15
2023-04-11T00:36:49.107Z,87.86
2023-04-11T00:39:18.601Z,87.77
2023-04-11T00:41:46.861Z,88.47
2023-04-11T00:44:15.138Z,87.68
2023-04-11T00:46:46.019Z,87.01
2023-04-11T00:49:13.845Z,88.24
2023-04-11T00:51:41.376Z,88.19
2023-04-11T00:54:10.510Z,88.71
2023-04-11T00:56:38.056Z,90.17
2023-04-11T00:59:07.184Z,91.23
2023-04-11T01:01:36.447Z,91.85
2023-04-11T01:04:05.783Z,91.60
2023-04-11T01:06:33.786Z,91.32
2023-04-11T01:09:04.985Z,91.03
2023-04-11T01:11:33.791Z,90.88
2023-04-11T01:14:01.889Z,91.83
2023-04-11T01:16:29.686Z,92.56
2023-04-11T01:18:57.508Z,92.64
2023-04-11T01:21:27.216Z,93.55
2023-04-11T01:23:54.704Z,92.97
2023-04-11T01:26:22.133Z,93.81
2023-04-11T01:28:49.740Z,94.54
2023-04-11T01:31:17.310Z,94.19
2023-04-11T01:33:45.935Z,94.42
2023-04-11T01:36:13.843Z,93.03
2023-04-11T01:38:44.534Z,92.52
2023-04-11T01:41:13.271Z,91.88
2023-04-11T01:43:41.454Z,91.75
2023-04-11T01:46:10.377Z,91.03
2023-04-11T01:48:38.675Z,91.78
2023-04-11T01:51:07.530Z,92.10
2023-04-11T01:53:35.042Z,93.24
2023-04-11T01:56:06.238Z,92.75
2023-04-11T01:58:34.055Z,92.08
2023-04-11T02:01:04.065Z,92.18
2023-04-11T02:03:31.934Z,92.25
2023-04-11T02:05:59.765Z,91.45
2023-04-11T02:08:28.502Z,90.83
2023-04-11T02:10:56.629Z,89.85
2023-04-11T02:13:23.990Z,90.22
2023-04-11T02:15:53.817Z,91.05
2023-04-11T02:18:21.734Z,91.11
2023-04-11T02:20:50.282Z,89.75
2023-04-11T02:23:24.475Z,89.81
2023-04-11T02:25:53.069Z,89.15
2023-04-11T02:28:20.476Z,89.38
2023-04-11T02:30:48.009Z,89.25
2023-04-11T02:33:16.502Z,88.70
2023-04-11T02:35:43.940Z,88.58
2023-04-11T02:38:11.802Z,87.23
2023-04-11T02:40:39.840Z,87.55
2023-04-11T02:43:11.687Z,86.57
2023-04-11T02:45:39.685Z,86.26
2023-04-11T02:48:08.251Z,86.23
2023-04-11T02:50:41.084Z,85.51
2023-04-11T02:53:08.890Z,85.39
2023-04-11T02:55:38.515Z,85.67
2023-04-11T02:58:07.906Z,86.14
2023-04-11T03:00:37.784Z,85.17
2023-04-11T03:03:26.552Z,86.05
2023-04-11T03:05:54.642Z,85.49
2023-04-11T03:08:22.993Z,85.90
2023-04-11T03:10:51.915Z,84.34
2023-04-11T03:13:19.657Z,85.17
2023-04-11T03:15:47.190Z,84.71
2023-04-11T03:18:15.916Z,84.14
2023-04-11T03:20:43.358Z,83.86
2023-04-11T03:23:14.905Z,83.08
2023-04-11T03:25:44.728Z,82.83
2023-04-11T03:28:12.102Z,82.76
2023-04-11T03:30:42.601Z,82.09
2023-04-11T03:33:10.689Z,81.28
2023-04-11T03:35:38.623Z,81.77
2023-04-11T03:38:06.626Z,81.21
2023-04-11T03:40:35.174Z,81.53
2023-04-11T03:43:04.586Z,81.20
2023-04-11T03:45:32.848Z,81.49
2023-04-11T03:48:00.787Z,80.92
2023-04-11T03:50:28.376Z,80.81
2023-04-11T03:52:56.031Z,80.87
2023-04-11T03:55:23.529Z,80.99
2023-04-11T03:57:50.922Z,80.33
2023-04-11T04:00:20.181Z,80.77
2023-04-11T04:03:07.310Z,80.41
2023-04-11T04:05:35.034Z,80.49
2023-04-11T04:08:06.532Z,79.51
2023-04-11T04:10:34.605Z,79.52
2023-04-11T04:13:02.316Z,80.08
2023-04-11T04:15:29.882Z,78.98
2023-04-11T04:17:57.440Z,79.65
2023-04-11T04:20:24.793Z,79.79
2023-04-11T04:22:55.736Z,80.27
2023-04-11T04:25:25.839Z,79.67
2023-04-11T04:27:54.266Z,79.69
2023-04-11T04:30:22.144Z,79.58
2023-04-11T04:32:54.950Z,78.90
2023-04-11T04:35:27.476Z,78.88
2023-04-11T04:37:56.528Z,78.40
2023-04-11T04:40:23.986Z,78.56
2023-04-11T04:42:58.908Z,78.46
2023-04-11T04:45:34.534Z,77.79
2023-04-11T04:48:03.469Z,77.96
2023-04-11T04:50:31.118Z,77.69
2023-04-11T04:52:59.056Z,76.40
2023-04-11T04:55:30.366Z,77.04
2023-04-11T04:57:57.975Z,77.58
2023-04-11T05:00:25.515Z,76.92
2023-04-11T05:02:55.017Z,76.85
2023-04-11T05:05:22.630Z,76.50
2023-04-11T05:07:50.149Z,75.88
2023-04-11T05:10:19.455Z,76.37
2023-04-11T05:12:47.733Z,75.87
2023-04-11T05:15:15.288Z,75.67
2023-04-11T05:17:44.952Z,74.29
2023-04-11T05:20:13.662Z,73.16
2023-04-11T05:22:42.346Z,73.94
2023-04-11T05:25:12.133Z,74.31
2023-04-11T05:27:40.638Z,73.24
2023-04-11T05:30:08.571Z,73.09
2023-04-11T05:32:51.209Z,73.64
2023-04-11T05:35:19.032Z,72.12
2023-04-11T05:37:46.548Z,71.10
2023-04-11T05:40:14.447Z,71.10
2023-04-11T05:42:42.765Z,71.22
2023-04-11T05:45:12.465Z,71.91
2023-04-11T05:47:40.233Z,72.11
2023-04-11T05:50:08.637Z,71.04
2023-04-11T05:52:36.713Z,71.90
2023-04-11T05:55:06.136Z,70.12
2023-04-11T05:57:42.061Z,70.91
2023-04-11T06:00:14.337Z,70.54
2023-04-11T06:03:02.689Z,69.32
2023-04-11T06:05:33.727Z,68.61
2023-04-11T06:08:05.790Z,68.63
2023-04-11T06:10:33.624Z,68.92
2023-04-11T06:13:09.207Z,66.75
2023-04-11T06:15:37.518Z,67.59
2023-04-11T06:18:05.086Z,67.36
2023-04-11T06:20:34.291Z,67.43
2023-04-11T06:23:02.206Z,67.18
2023-04-11T06:25:30.043Z,67.22
2023-04-11T06:27:57.663Z,68.25
2023-04-11T06:30:25.430Z,66.96
2023-04-11T06:32:57.185Z,67.03
2023-04-11T06:35:25.203Z,67.03
2023-04-11T06:37:52.789Z,68.40
2023-04-11T06:40:22.668Z,68.09
2023-04-11T06:42:50.314Z,67.81
2023-04-11T06:45:18.039Z,67.77
2023-04-11T06:47:46.545Z,68.48
2023-04-11T06:50:14.231Z,68.37
2023-04-11T06:52:46.667Z,67.65
2023-04-11T06:55:15.708Z,68.75
2023-04-11T06:57:43.997Z,67.41
2023-04-11T07:00:13.114Z,66.89
2023-04-11T07:02:51.207Z,67.23
2023-04-11T07:05:18.836Z,66.71
2023-04-11T07:07:48.099Z,66.74
2023-04-11T07:10:15.923Z,65.71
2023-04-11T07:12:43.357Z,67.29
2023-04-11T07:15:13.142Z,65.19
2023-04-11T07:17:41.254Z,66.30
2023-04-11T07:20:11.855Z,66.33
2023-04-11T07:22:43.519Z,67.09
2023-04-11T07:25:11.022Z,65.56
2023-04-11T07:27:38.977Z,65.97
2023-04-11T07:30:07.292Z,64.80
2023-04-11T07:32:54.599Z,66.76
2023-04-11T07:35:23.699Z,65.40
2023-04-11T07:37:53.759Z,65.04
2023-04-11T07:40:21.271Z,65.30
2023-04-11T07:42:50.278Z,64.47
2023-04-11T07:45:18.040Z,64.42
2023-04-11T07:47:46.344Z,64.36
2023-04-11T07:50:14.284Z,63.30
2023-04-11T07:52:42.194Z,63.93
2023-04-11T07:55:10.167Z,64.50
2023-04-11T07:57:37.542Z,64.62
2023-04-11T08:00:11.567Z,64.92
2023-04-11T08:02:40.089Z,63.43
2023-04-11T08:05:10.144Z,64.65
2023-04-11T08:07:37.680Z,63.62
2023-04-11T08:10:07.280Z,64.13
2023-04-11T08:12:35.139Z,62.74
2023-04-11T08:15:07.074Z,61.79
2023-04-11T08:17:38.575Z,61.07
2023-04-11T08:20:12.190Z,61.00
2023-04-11T08:22:46.942Z,60.41
2023-04-11T08:25:15.282Z,60.93
2023-04-11T08:27:43.186Z,60.93
2023-04-11T08:30:11.026Z,61.24
2023-04-11T08:32:39.027Z,60.43
2023-04-11T08:35:06.720Z,60.79
2023-04-11T08:37:34.752Z,61.17
2023-04-11T08:40:02.225Z,62.27
2023-04-11T08:42:31.243Z,63.05
2023-04-11T08:45:08.871Z,61.42
2023-04-11T08:47:39.245Z,60.69
2023-04-11T08:50:07.394Z,59.83
2023-04-11T08:52:38.014Z,61.51
2023-04-11T08:55:05.778Z,61.49
2023-04-11T08:57:33.378Z,60.37
2023-04-11T09:00:20.126Z,60.81
2023-04-11T09:02:58.071Z,60.32
2023-04-11T09:05:32.380Z,60.79
2023-04-11T09:08:03.673Z,61.04
2023-04-11T09:10:31.537Z,60.24
2023-04-11T09:13:13.506Z,59.07
2023-04-11T09:15:42.209Z,58.09
2023-04-11T09:18:09.753Z,58.66
2023-04-11T09:20:44.047Z,60.07
2023-04-11T09:23:24.293Z,57.32
2023-04-11T09:25:53.594Z,58.82
2023-04-11T09:28:21.930Z,58.09
2023-04-11T09:30:52.353Z,57.96
2023-04-11T09:33:22.787Z,57.23
2023-04-11T09:35:52.844Z,55.17
2023-04-11T09:38:34.344Z,52.47
2023-04-11T09:41:03.475Z,53.61
2023-04-11T09:43:52.845Z,54.48
2023-04-11T09:46:21.480Z,54.51
2023-04-11T09:48:50.355Z,52.81
2023-04-11T09:51:34.222Z,53.70
2023-04-11T09:54:04.547Z,54.26
2023-04-11T09:56:36.786Z,54.76
2023-04-11T09:59:06.068Z,54.64
2023-04-11T10:01:33.759Z,54.80
2023-04-11T10:04:01.578Z,56.41
2023-04-11T10:06:34.587Z,56.48
2023-04-11T10:09:13.144Z,57.04
2023-04-11T10:11:45.609Z,57.09
2023-04-11T10:14:39.333Z,57.14
2023-04-11T10:17:24.250Z,57.44
2023-04-11T10:19:58.996Z,56.22
2023-04-11T10:22:41.659Z,55.73
2023-04-11T10:25:20.445Z,56.30
2023-04-11T10:28:00.976Z,56.84
2023-04-11T10:30:39.809Z,57.51
2023-04-11T10:33:13.952Z,57.83
2023-04-11T10:35:59.865Z,57.09
2023-04-11T10:38:51.749Z,55.26
2023-04-11T10:41:29.370Z,54.92
2023-04-11T10:44:26.136Z,54.14
2023-04-11T10:46:55.388Z,53.51
2023-04-11T10:49:36.940Z,53.35
2023-04-11T10:52:21.806Z,52.57
2023-04-11T10:54:51.342Z,52.53
2023-04-11T10:57:19.598Z,51.24
2023-04-11T10:59:50.600Z,51.38
2023-04-11T11:02:20.061Z,52.58
2023-04-11T11:04:49.392Z,52.25
2023-04-11T11:07:17.531Z,52.37
2023-04-11T11:09:49.594Z,51.77
2023-04-11T11:12:17.622Z,51.44
2023-04-11T11:14:47.538Z,51.55
2023-04-11T11:17:17.148Z,52.16
2023-04-11T11:19:48.645Z,52.12
2023-04-11T11:22:17.779Z,52.36
2023-04-11T11:24:45.431Z,52.54
2023-04-11T11:27:23.625Z,52.21
2023-04-11T11:29:51.805Z,50.83
2023-04-11T11:32:33.019Z,51.14
2023-04-11T11:35:00.516Z,51.99
2023-04-11T11:37:28.253Z,51.92
2023-04-11T11:39:55.924Z,51.27
2023-04-11T11:42:23.356Z,51.63
2023-04-11T11:44:50.980Z,50.54
2023-04-11T11:47:18.990Z,49.87
2023-04-11T11:49:52.119Z,50.08
2023-04-11T11:52:40.870Z,50.54
2023-04-11T11:55:28.914Z,50.44
2023-04-11T11:58:02.331Z,50.38
2023-04-11T12:00:34.979Z,49.78
2023-04-11T12:03:02.974Z,48.93
2023-04-11T12:05:33.163Z,49.57
2023-04-11T12:08:06.047Z,48.71
2023-04-11T12:10:41.887Z,49.33
2023-04-11T12:13:14.971Z,49.95
2023-04-11T12:15:49.986Z,50.55
2023-04-11T12:18:23.902Z,51.26
2023-04-11T12:20:51.760Z,51.40
2023-04-11T12:23:19.742Z,50.80
2023-04-11T12:25:50.384Z,50.90
2023-04-11T12:28:18.545Z,51.01
2023-04-11T12:30:47.232Z,51.08
2023-04-11T12:33:16.567Z,51.38
2023-04-11T12:35:44.114Z,51.30
2023-04-11T12:38:14.953Z,51.43
2023-04-11T12:40:46.407Z,51.33
2023-04-11T12:43:13.848Z,51.92
2023-04-11T12:45:41.508Z,51.17
2023-04-11T12:48:09.224Z,50.82
2023-04-11T12:50:37.006Z,51.43
2023-04-11T12:53:04.405Z,51.12
2023-04-11T12:55:32.031Z,52.13
2023-04-11T12:58:02.255Z,52.49
2023-04-11T13:00:30.237Z,53.14
2023-04-11T13:03:16.210Z,52.70
2023-04-11T13:05:46.586Z,52.88
2023-04-11T13:08:14.366Z,52.64
2023-04-11T13:10:41.697Z,53.60
2023-04-11T13:13:17.932Z,52.99
2023-04-11T13:15:46.905Z,52.25
2023-04-11T13:18:14.540Z,53.71
2023-04-11T13:20:42.714Z,53.10
2023-04-11T13:23:11.451Z,52.95
2023-04-11T13:25:38.944Z,52.60
2023-04-11T13:28:06.391Z,52.73
2023-04-11T13:30:33.770Z,52.40
2023-04-11T13:33:02.053Z,52.75
2023-04-11T13:35:29.969Z,52.82
2023-04-11T13:37:57.804Z,52.46
2023-04-11T13:40:25.410Z,53.28
2023-04-11T13:42:54.627Z,52.48
2023-04-11T13:45:22.335Z,52.61
2023-04-11T13:47:49.949Z,52.73
2023-04-11T13:50:17.578Z,52.47
2023-04-11T13:52:45.183Z,52.63
2023-04-11T13:55:14.379Z,52.77
2023-04-11T13:57:42.372Z,52.53
2023-04-11T14:00:12.578Z,52.80
2023-04-11T14:02:58.712Z,53.42
2023-04-11T14:05:27.169Z,53.95
2023-04-11T14:07:55.743Z,53.96
2023-04-11T14:10:23.281Z,54.10
2023-04-11T14:12:50.767Z,55.63
2023-04-11T14:15:21.881Z,54.85
2023-04-11T14:17:49.949Z,55.36
2023-04-11T14:20:20.482Z,54.82
2023-04-11T14:22:49.582Z,54.21
2023-04-11T14:25:17.046Z,54.11
2023-04-11T14:27:44.947Z,54.47
2023-04-11T14:30:13.169Z,54.61
2023-04-11T14:32:47.711Z,55.17
2023-04-11T14:35:15.639Z,55.42
2023-04-11T14:37:43.376Z,54.94
2023-04-11T14:40:13.832Z,55.95
2023-04-11T14:42:42.951Z,56.21
2023-04-11T14:45:12.189Z,55.41
2023-04-11T14:47:40.310Z,55.85
2023-04-11T14:50:08.351Z,56.27
2023-04-11T14:52:35.965Z,56.14
2023-04-11T14:55:03.793Z,57.07
2023-04-11T14:57:47.322Z,57.72
2023-04-11T15:00:22.862Z,57.62
2023-04-11T15:02:54.130Z,58.23
2023-04-11T15:05:23.380Z,58.75
2023-04-11T15:07:52.647Z,59.68
2023-04-11T15:10:22.963Z,60.90
2023-04-11T15:12:50.532Z,60.83
2023-04-11T15:15:18.067Z,60.66
2023-04-11T15:17:47.724Z,60.62
2023-04-11T15:20:20.180Z,61.45
2023-04-11T15:22:48.132Z,61.53
2023-04-11T15:25:17.060Z,62.57
2023-04-11T15:27:44.584Z,63.81
2023-04-11T15:30:12.218Z,63.48
2023-04-11T15:32:43.914Z,64.84
2023-04-11T15:35:11.656Z,66.19
2023-04-11T15:37:39.451Z,66.91
2023-04-11T15:40:09.460Z,66.26
2023-04-11T15:42:39.621Z,66.20
2023-04-11T15:45:07.802Z,67.84
2023-04-11T15:47:36.060Z,66.74
2023-04-11T15:50:04.837Z,65.90
2023-04-11T15:52:32.681Z,65.64
2023-04-11T15:55:00.397Z,68.63
2023-04-11T15:57:28.761Z,73.79
2023-04-11T15:59:56.188Z,72.04
2023-04-11T16:02:24.351Z,76.67
2023-04-11T16:04:54.003Z,76.12
2023-04-11T16:07:23.383Z,81.40
2023-04-11T16:09:50.852Z,84.71
2023-04-11T16:12:18.672Z,84.81
2023-04-11T16:14:46.770Z,89.44
2023-04-11T16:17:18.388Z,91.56
2023-04-11T16:19:46.078Z,94.57
2023-04-11T16:22:13.497Z,99.38
2023-04-11T16:24:42.974Z,100.00
2023-04-11T16:27:10.508Z,100.00
2023-04-11T16:29:38.069Z,100.00
2023-04-11T16:32:05.860Z,100.00
2023-04-11T16:34:33.330Z,100.00
2023-04-11T16:37:01.403Z,100.00
2023-04-11T16:39:29.927Z,99.47
2023-04-11T16:41:57.806Z,99.71
2023-04-11T16:44:26.521Z,97.95
2023-04-11T16:46:53.922Z,97.34
2023-04-11T16:49:21.398Z,95.39
2023-04-11T16:51:49.083Z,94.38
2023-04-11T16:54:16.524Z,95.35
2023-04-11T16:56:44.299Z,95.55
2023-04-11T16:59:12.505Z,93.73
2023-04-11T17:01:41.879Z,91.39
2023-04-11T17:04:12.615Z,92.70
2023-04-11T17:06:40.039Z,89.69
2023-04-11T17:09:07.945Z,89.97
2023-04-11T17:11:37.859Z,89.24
2023-04-11T17:14:10.260Z,89.01
2023-04-11T17:16:37.930Z,89.07
2023-04-11T17:19:05.395Z,89.50
2023-04-11T17:21:36.855Z,88.78
2023-04-11T17:24:04.530Z,89.19
2023-04-11T17:26:32.265Z,89.18
2023-04-11T17:29:00.144Z,88.52
2023-04-11T17:31:29.409Z,89.29
2023-04-11T17:33:58.386Z,88.89
2023-04-11T17:36:28.417Z,87.31
2023-04-11T17:38:55.953Z,88.13
2023-04-11T17:41:23.457Z,88.50
2023-04-11T17:43:50.862Z,88.46
2023-04-11T17:46:20.405Z,89.59
2023-04-11T17:48:48.004Z,90.51
2023-04-11T17:51:15.439Z,91.81
2023-04-11T17:53:44.136Z,89.84
2023-04-11T17:56:12.494Z,90.69
2023-04-11T17:58:44.369Z,90.88
2023-04-11T18:01:12.902Z,91.83
2023-04-11T18:03:41.450Z,92.32
2023-04-11T18:06:09.389Z,94.19
2023-04-11T18:11:11.076Z,96.15
2023-04-11T18:13:38.532Z,97.69
2023-04-11T18:16:08.075Z,96.40
2023-04-11T18:18:36.862Z,99.76
2023-04-11T18:21:07.149Z,100.00
2023-04-11T18:23:35.891Z,100.00
2023-04-11T18:26:03.544Z,100.00
2023-04-11T18:28:33.805Z,100.00
2023-04-11T18:31:01.783Z,100.00
2023-04-11T18:33:29.596Z,100.00
2023-04-11T18:36:02.732Z,100.00
2023-04-11T18:38:30.820Z,100.00
2023-04-11T18:41:01.237Z,100.00
2023-04-11T18:43:32.944Z,100.00
2023-04-11T18:46:02.063Z,100.00
2023-04-11T18:48:35.632Z,100.00
2023-04-11T18:51:04.999Z,100.00
2023-04-11T18:53:32.599Z,100.00
2023-04-11T18:56:03.134Z,100.00
2023-04-11T18:58:34.308Z,100.00
2023-04-11T19:01:14.691Z,100.00
2023-04-11T19:03:44.547Z,100.00
2023-04-11T19:06:13.044Z,100.00
2023-04-11T19:08:44.876Z,100.00
2023-04-11T19:11:12.594Z,100.00
2023-04-11T19:13:41.256Z,100.00
2023-04-11T19:16:09.056Z,100.00
2023-04-11T19:18:36.880Z,100.00
2023-04-11T19:21:04.561Z,100.00
2023-04-11T19:23:35.003Z,100.00
2023-04-11T19:26:02.674Z,100.00
2023-04-11T19:28:30.290Z,100.00
2023-04-11T19:30:57.695Z,100.00
2023-04-11T19:33:26.401Z,100.00
2023-04-11T19:35:54.443Z,100.00
2023-04-11T19:38:21.986Z,100.00
2023-04-11T19:40:49.450Z,100.00
2023-04-11T19:43:18.289Z,100.00
2023-04-11T19:45:46.441Z,100.00
2023-04-11T19:48:14.419Z,100.00
2023-04-11T19:50:46.198Z,100.00
2023-04-11T19:53:13.922Z,100.00
2023-04-11T19:55:41.502Z,100.00
2023-04-11T19:58:09.727Z,100.00
2023-04-11T20:00:38.688Z,100.00
2023-04-11T20:03:18.048Z,100.00
2023-04-11T20:05:46.422Z,100.00
2023-04-11T20:08:14.424Z,100.00
2023-04-11T20:10:41.949Z,100.00
2023-04-11T20:13:09.612Z,100.00
2023-04-11T20:15:37.135Z,100.00
2023-04-11T20:18:05.767Z,100.00
2023-04-11T20:20:33.773Z,100.00
2023-04-11T20:23:07.155Z,100.00
2023-04-11T20:25:35.674Z,100.00
2023-04-11T20:28:03.486Z,100.00
2023-04-11T20:30:31.028Z,100.00
2023-04-11T20:32:58.725Z,100.00
2023-04-11T20:35:26.153Z,100.00
2023-04-11T20:37:54.204Z,100.00
2023-04-11T20:40:21.902Z,100.00
2023-04-11T20:42:50.304Z,100.00
2023-04-11T20:45:21.816Z,100.00
2023-04-11T20:47:53.025Z,100.00
2023-04-11T20:50:21.858Z,100.00
2023-04-11T20:52:53.099Z,100.00
2023-04-11T20:55:21.382Z,100.00
2023-04-11T20:57:48.869Z,100.00
2023-04-11T21:00:18.643Z,100.00
2023-04-11T21:02:50.737Z,100.00
2023-04-11T21:05:19.692Z,100.00
2023-04-11T21:07:54.511Z,100.00
2023-04-11T21:10:22.527Z,100.00
2023-04-11T21:12:54.179Z,100.00
2023-04-11T21:15:26.873Z,100.00
2023-04-11T21:17:54.543Z,100.00
2023-04-11T21:20:22.658Z,100.00
2023-04-11T21:22:55.936Z,100.00
2023-04-11T21:25:24.209Z,100.00
2023-04-11T21:27:51.764Z,100.00
2023-04-11T21:30:19.243Z,100.00
2023-04-11T21:33:05.226Z,100.00
2023-04-11T21:35:34.551Z,100.00
2023-04-11T21:38:02.006Z,100.00
2023-04-11T21:40:29.681Z,100.00
2023-04-11T21:42:57.316Z,100.00
2023-04-11T21:45:30.557Z,100.00
2023-04-11T21:47:57.921Z,100.00
2023-04-11T21:50:25.593Z,100.00
2023-04-11T21:52:53.853Z,100.00
2023-04-11T21:55:22.234Z,100.00
2023-04-11T21:57:49.672Z,100.00
2023-04-11T22:00:18.239Z,100.00
2023-04-11T22:02:45.879Z,100.00
2023-04-11T22:05:13.674Z,100.00
2023-04-11T22:07:48.840Z,100.00
2023-04-11T22:10:23.744Z,100.00
2023-04-11T22:12:54.514Z,100.00
2023-04-11T22:15:24.172Z,100.00
2023-04-11T22:17:56.674Z,100.00
2023-04-11T22:20:24.189Z,100.00
2023-04-11T22:22:53.012Z,100.00
2023-04-11T22:25:22.375Z,100.00
2023-04-11T22:27:54.582Z,100.00
2023-04-11T22:30:23.625Z,100.00
2023-04-11T22:33:04.186Z,100.00
2023-04-11T22:35:33.259Z,100.00
2023-04-11T22:38:00.897Z,100.00
2023-04-11T22:40:28.414Z,100.00
2023-04-11T22:42:57.011Z,100.00
2023-04-11T22:45:24.675Z,100.00
2023-04-11T22:47:54.346Z,100.00
2023-04-11T22:50:22.813Z,100.00
2023-04-11T22:52:50.326Z,100.00
2023-04-11T22:55:21.239Z,100.00
2023-04-11T22:57:48.761Z,100.00
2023-04-11T23:00:19.114Z,100.00
2023-04-11T23:02:47.405Z,100.00
2023-04-11T23:05:16.926Z,100.00
2023-04-11T23:07:44.763Z,100.00
2023-04-11T23:10:15.007Z,100.00
2023-04-11T23:12:42.416Z,100.00
2023-04-11T23:15:11.603Z,100.00
2023-04-11T23:17:40.161Z,100.00
2023-04-11T23:20:12.969Z,100.00
2023-04-11T23:22:42.455Z,100.00
2023-04-11T23:25:11.766Z,100.00
2023-04-11T23:27:47.594Z,100.00
2023-04-11T23:30:17.679Z,100.00
2023-04-11T23:33:06.085Z,100.00
2023-04-11T23:35:34.546Z,100.00
2023-04-11T23:38:03.181Z,100.00
2023-04-11T23:40:33.812Z,100.00
2023-04-11T23:43:01.850Z,100.00
2023-04-11T23:45:29.394Z,100.00
2023-04-11T23:47:59.393Z,100.00
2023-04-11T23:50:26.799Z,100.00
2023-04-11T23:52:54.292Z,100.00
2023-04-11T23:55:22.005Z,100.00
2023-04-11T23:57:49.734Z,100.00
